sensor_id;sensor_type;location;lat;lon;timestamp;temperature;humidity
6307;DHT22;3186;54.062;9.962;2023-03-05T00:01:49;3.90;99.90
6307;DHT22;3186;54.062;9.962;2023-03-05T00:04:15;3.90;99.90
6307;DHT22;3186;54.062;9.962;2023-03-05T00:06:41;3.90;99.90
6307;DHT22;3186;54.062;9.962;2023-03-05T00:09:06;4.00;99.90
6307;DHT22;3186;54.062;9.962;2023-03-05T00:11:32;3.90;99.90
6307;DHT22;3186;54.062;9.962;2023-03-05T00:14:00;3.90;99.90
6307;DHT22;3186;54.062;9.962;2023-03-05T00:16:28;3.90;99.90
6307;DHT22;3186;54.062;9.962;2023-03-05T00:18:56;3.80;99.90
6307;DHT22;3186;54.062;9.962;2023-03-05T00:23:50;2.70;99.90
6307;DHT22;3186;54.062;9.962;2023-03-05T00:26:18;4.10;99.90
6307;DHT22;3186;54.062;9.962;2023-03-05T00:28:43;3.80;99.90
6307;DHT22;3186;54.062;9.962;2023-03-05T00:31:15;3.80;99.90
6307;DHT22;3186;54.062;9.962;2023-03-05T00:33:42;3.80;99.90
6307;DHT22;3186;54.062;9.962;2023-03-05T00:36:08;3.90;99.90
6307;DHT22;3186;54.062;9.962;2023-03-05T00:38:34;3.80;99.90
6307;DHT22;3186;54.062;9.962;2023-03-05T00:41:01;3.80;99.90
6307;DHT22;3186;54.062;9.962;2023-03-05T00:43:27;3.90;99.90
6307;DHT22;3186;54.062;9.962;2023-03-05T00:45:53;3.80;99.90
6307;DHT22;3186;54.062;9.962;2023-03-05T00:48:19;3.80;99.90
6307;DHT22;3186;54.062;9.962;2023-03-05T00:50:47;3.80;99.90
6307;DHT22;3186;54.062;9.962;2023-03-05T00:53:13;3.80;99.90
6307;DHT22;3186;54.062;9.962;2023-03-05T00:55:38;3.70;99.90
6307;DHT22;3186;54.062;9.962;2023-03-05T00:58:04;3.60;99.20
6307;DHT22;3186;54.062;9.962;2023-03-05T01:00:30;3.60;99.90
6307;DHT22;3186;54.062;9.962;2023-03-05T01:02:56;3.60;99.90
6307;DHT22;3186;54.062;9.962;2023-03-05T01:05:22;3.70;99.90
6307;DHT22;3186;54.062;9.962;2023-03-05T01:07:52;3.60;99.90
6307;DHT22;3186;54.062;9.962;2023-03-05T01:10:18;3.60;99.90
6307;DHT22;3186;54.062;9.962;2023-03-05T01:12:44;3.60;99.90
6307;DHT22;3186;54.062;9.962;2023-03-05T01:15:10;3.50;99.90
6307;DHT22;3186;54.062;9.962;2023-03-05T01:17:36;3.60;99.90
6307;DHT22;3186;54.062;9.962;2023-03-05T01:20:03;3.70;99.90
6307;DHT22;3186;54.062;9.962;2023-03-05T01:22:29;3.70;99.90
6307;DHT22;3186;54.062;9.962;2023-03-05T01:24:55;3.60;99.90
6307;DHT22;3186;54.062;9.962;2023-03-05T01:27:21;3.70;99.90
6307;DHT22;3186;54.062;9.962;2023-03-05T01:29:46;3.70;99.90
6307;DHT22;3186;54.062;9.962;2023-03-05T01:32:12;3.80;99.90
6307;DHT22;3186;54.062;9.962;2023-03-05T01:34:38;3.70;99.90
6307;DHT22;3186;54.062;9.962;2023-03-05T01:37:07;3.70;99.90
6307;DHT22;3186;54.062;9.962;2023-03-05T01:39:33;3.60;99.90
6307;DHT22;3186;54.062;9.962;2023-03-05T01:42:01;3.60;99.90
6307;DHT22;3186;54.062;9.962;2023-03-05T01:44:29;3.60;99.90
6307;DHT22;3186;54.062;9.962;2023-03-05T01:46:55;3.60;99.90
6307;DHT22;3186;54.062;9.962;2023-03-05T01:49:34;3.70;99.90
6307;DHT22;3186;54.062;9.962;2023-03-05T01:52:08;3.70;99.90
6307;DHT22;3186;54.062;9.962;2023-03-05T01:54:39;3.60;99.90
6307;DHT22;3186;54.062;9.962;2023-03-05T01:57:14;3.60;99.90
6307;DHT22;3186;54.062;9.962;2023-03-05T01:59:43;3.60;99.90
6307;DHT22;3186;54.062;9.962;2023-03-05T02:02:09;3.60;99.90
6307;DHT22;3186;54.062;9.962;2023-03-05T02:04:47;3.70;99.90
6307;DHT22;3186;54.062;9.962;2023-03-05T02:07:16;3.70;99.90
6307;DHT22;3186;54.062;9.962;2023-03-05T02:09:42;3.70;99.90
6307;DHT22;3186;54.062;9.962;2023-03-05T02:12:09;3.70;99.90
6307;DHT22;3186;54.062;9.962;2023-03-05T02:14:36;3.60;99.90
6307;DHT22;3186;54.062;9.962;2023-03-05T02:17:04;3.70;99.90
6307;DHT22;3186;54.062;9.962;2023-03-05T02:19:55;3.70;99.90
6307;DHT22;3186;54.062;9.962;2023-03-05T02:22:22;3.70;99.90
6307;DHT22;3186;54.062;9.962;2023-03-05T02:24:49;3.70;99.90
6307;DHT22;3186;54.062;9.962;2023-03-05T02:27:15;3.60;99.90
6307;DHT22;3186;54.062;9.962;2023-03-05T02:29:44;3.60;99.90
6307;DHT22;3186;54.062;9.962;2023-03-05T02:32:12;3.60;99.90
6307;DHT22;3186;54.062;9.962;2023-03-05T02:34:38;3.60;99.90
6307;DHT22;3186;54.062;9.962;2023-03-05T02:37:06;3.50;99.90
6307;DHT22;3186;54.062;9.962;2023-03-05T02:39:35;3.40;99.90
6307;DHT22;3186;54.062;9.962;2023-03-05T02:42:02;3.40;99.90
6307;DHT22;3186;54.062;9.962;2023-03-05T02:44:28;3.50;99.90
6307;DHT22;3186;54.062;9.962;2023-03-05T02:46:54;3.40;99.90
6307;DHT22;3186;54.062;9.962;2023-03-05T02:49:20;3.50;99.90
6307;DHT22;3186;54.062;9.962;2023-03-05T02:51:46;3.50;99.90
6307;DHT22;3186;54.062;9.962;2023-03-05T02:54:11;3.60;99.90
6307;DHT22;3186;54.062;9.962;2023-03-05T02:56:38;3.50;99.90
6307;DHT22;3186;54.062;9.962;2023-03-05T02:59:04;3.50;99.90
6307;DHT22;3186;54.062;9.962;2023-03-05T03:01:30;3.50;99.90
6307;DHT22;3186;54.062;9.962;2023-03-05T03:03:56;3.50;99.90
6307;DHT22;3186;54.062;9.962;2023-03-05T03:06:22;3.50;99.90
6307;DHT22;3186;54.062;9.962;2023-03-05T03:08:48;3.50;99.90
6307;DHT22;3186;54.062;9.962;2023-03-05T03:11:14;3.50;99.90
6307;DHT22;3186;54.062;9.962;2023-03-05T03:13:40;3.40;99.90
6307;DHT22;3186;54.062;9.962;2023-03-05T03:16:11;3.50;99.90
6307;DHT22;3186;54.062;9.962;2023-03-05T03:18:38;3.40;99.90
6307;DHT22;3186;54.062;9.962;2023-03-05T03:21:04;3.50;99.90
6307;DHT22;3186;54.062;9.962;2023-03-05T03:23:30;3.50;99.90
6307;DHT22;3186;54.062;9.962;2023-03-05T03:25:56;3.30;99.90
6307;DHT22;3186;54.062;9.962;2023-03-05T03:28:22;3.30;99.90
6307;DHT22;3186;54.062;9.962;2023-03-05T03:30:49;3.40;99.90
6307;DHT22;3186;54.062;9.962;2023-03-05T03:33:16;3.40;99.90
6307;DHT22;3186;54.062;9.962;2023-03-05T03:35:44;3.50;99.90
6307;DHT22;3186;54.062;9.962;2023-03-05T03:38:10;3.40;99.90
6307;DHT22;3186;54.062;9.962;2023-03-05T03:40:39;3.40;99.90
6307;DHT22;3186;54.062;9.962;2023-03-05T03:43:05;3.50;99.90
6307;DHT22;3186;54.062;9.962;2023-03-05T03:45:31;3.30;99.90
6307;DHT22;3186;54.062;9.962;2023-03-05T03:47:57;3.30;99.90
6307;DHT22;3186;54.062;9.962;2023-03-05T03:50:22;3.30;99.90
6307;DHT22;3186;54.062;9.962;2023-03-05T03:52:49;3.40;99.90
6307;DHT22;3186;54.062;9.962;2023-03-05T03:55:15;3.40;99.90
6307;DHT22;3186;54.062;9.962;2023-03-05T03:57:41;3.40;99.90
6307;DHT22;3186;54.062;9.962;2023-03-05T04:00:09;3.40;99.90
6307;DHT22;3186;54.062;9.962;2023-03-05T04:02:39;3.30;99.90
6307;DHT22;3186;54.062;9.962;2023-03-05T04:05:05;3.30;99.90
6307;DHT22;3186;54.062;9.962;2023-03-05T04:07:31;3.40;99.90
6307;DHT22;3186;54.062;9.962;2023-03-05T04:09:57;3.40;99.90
6307;DHT22;3186;54.062;9.962;2023-03-05T04:12:23;3.50;99.90
6307;DHT22;3186;54.062;9.962;2023-03-05T04:14:49;3.50;99.90
6307;DHT22;3186;54.062;9.962;2023-03-05T04:17:15;3.20;99.90
6307;DHT22;3186;54.062;9.962;2023-03-05T04:19:41;3.50;99.90
6307;DHT22;3186;54.062;9.962;2023-03-05T04:22:15;3.50;99.90
6307;DHT22;3186;54.062;9.962;2023-03-05T04:24:42;3.40;99.90
6307;DHT22;3186;54.062;9.962;2023-03-05T04:27:08;3.40;99.90
6307;DHT22;3186;54.062;9.962;2023-03-05T04:29:34;3.50;99.90
6307;DHT22;3186;54.062;9.962;2023-03-05T04:32:01;3.40;99.90
6307;DHT22;3186;54.062;9.962;2023-03-05T04:34:26;3.40;99.90
6307;DHT22;3186;54.062;9.962;2023-03-05T04:36:52;3.30;99.90
6307;DHT22;3186;54.062;9.962;2023-03-05T04:39:18;3.40;99.90
6307;DHT22;3186;54.062;9.962;2023-03-05T04:41:46;3.40;99.90
6307;DHT22;3186;54.062;9.962;2023-03-05T04:44:12;3.40;99.90
6307;DHT22;3186;54.062;9.962;2023-03-05T04:46:38;3.30;99.90
6307;DHT22;3186;54.062;9.962;2023-03-05T04:49:05;3.30;99.90
6307;DHT22;3186;54.062;9.962;2023-03-05T04:51:31;3.30;99.90
6307;DHT22;3186;54.062;9.962;2023-03-05T04:53:56;3.10;99.90
6307;DHT22;3186;54.062;9.962;2023-03-05T04:56:22;3.10;99.90
6307;DHT22;3186;54.062;9.962;2023-03-05T04:58:48;3.10;99.90
6307;DHT22;3186;54.062;9.962;2023-03-05T05:01:14;3.20;99.90
6307;DHT22;3186;54.062;9.962;2023-03-05T05:03:40;3.20;99.90
6307;DHT22;3186;54.062;9.962;2023-03-05T05:06:06;3.20;99.90
6307;DHT22;3186;54.062;9.962;2023-03-05T05:08:32;3.20;99.90
6307;DHT22;3186;54.062;9.962;2023-03-05T05:11:01;3.20;99.90
6307;DHT22;3186;54.062;9.962;2023-03-05T05:13:27;3.10;99.90
6307;DHT22;3186;54.062;9.962;2023-03-05T05:15:53;3.10;99.90
6307;DHT22;3186;54.062;9.962;2023-03-05T05:18:19;3.10;99.90
6307;DHT22;3186;54.062;9.962;2023-03-05T05:20:46;3.10;99.90
6307;DHT22;3186;54.062;9.962;2023-03-05T05:23:12;3.00;99.90
6307;DHT22;3186;54.062;9.962;2023-03-05T05:25:38;3.00;99.90
6307;DHT22;3186;54.062;9.962;2023-03-05T05:28:04;2.90;99.90
6307;DHT22;3186;54.062;9.962;2023-03-05T05:30:30;2.90;99.90
6307;DHT22;3186;54.062;9.962;2023-03-05T05:32:56;2.90;99.90
6307;DHT22;3186;54.062;9.962;2023-03-05T05:35:22;3.10;99.90
6307;DHT22;3186;54.062;9.962;2023-03-05T05:37:47;3.00;99.90
6307;DHT22;3186;54.062;9.962;2023-03-05T05:40:14;2.90;99.90
6307;DHT22;3186;54.062;9.962;2023-03-05T05:42:40;3.00;99.90
6307;DHT22;3186;54.062;9.962;2023-03-05T05:45:06;3.00;99.90
6307;DHT22;3186;54.062;9.962;2023-03-05T05:47:32;3.00;99.90
6307;DHT22;3186;54.062;9.962;2023-03-05T05:49:58;2.90;99.90
6307;DHT22;3186;54.062;9.962;2023-03-05T05:52:24;3.00;99.90
6307;DHT22;3186;54.062;9.962;2023-03-05T05:54:50;2.90;99.90
6307;DHT22;3186;54.062;9.962;2023-03-05T05:57:15;3.00;99.90
6307;DHT22;3186;54.062;9.962;2023-03-05T05:59:41;3.00;99.90
6307;DHT22;3186;54.062;9.962;2023-03-05T06:02:07;2.90;99.90
6307;DHT22;3186;54.062;9.962;2023-03-05T06:04:34;2.90;99.90
6307;DHT22;3186;54.062;9.962;2023-03-05T06:07:00;2.80;99.90
6307;DHT22;3186;54.062;9.962;2023-03-05T06:09:27;2.90;99.90
6307;DHT22;3186;54.062;9.962;2023-03-05T06:11:53;2.90;99.90
6307;DHT22;3186;54.062;9.962;2023-03-05T06:14:19;2.90;99.90
6307;DHT22;3186;54.062;9.962;2023-03-05T06:16:46;2.80;99.90
6307;DHT22;3186;54.062;9.962;2023-03-05T06:19:13;2.80;99.90
6307;DHT22;3186;54.062;9.962;2023-03-05T06:21:39;2.80;99.90
6307;DHT22;3186;54.062;9.962;2023-03-05T06:24:05;2.60;99.90
6307;DHT22;3186;54.062;9.962;2023-03-05T06:26:32;2.70;99.90
6307;DHT22;3186;54.062;9.962;2023-03-05T06:28:58;2.70;99.90
6307;DHT22;3186;54.062;9.962;2023-03-05T06:31:26;2.80;99.90
6307;DHT22;3186;54.062;9.962;2023-03-05T06:33:54;2.80;99.90
6307;DHT22;3186;54.062;9.962;2023-03-05T06:36:22;2.70;99.90
6307;DHT22;3186;54.062;9.962;2023-03-05T06:38:49;2.60;99.90
6307;DHT22;3186;54.062;9.962;2023-03-05T06:41:17;2.70;99.90
6307;DHT22;3186;54.062;9.962;2023-03-05T06:43:45;2.70;99.90
6307;DHT22;3186;54.062;9.962;2023-03-05T06:48:45;2.80;99.90
6307;DHT22;3186;54.062;9.962;2023-03-05T06:51:25;2.90;99.90
6307;DHT22;3186;54.062;9.962;2023-03-05T06:53:52;2.90;99.90
6307;DHT22;3186;54.062;9.962;2023-03-05T06:56:19;2.90;99.90
6307;DHT22;3186;54.062;9.962;2023-03-05T06:58:47;2.90;99.90
6307;DHT22;3186;54.062;9.962;2023-03-05T07:01:14;2.90;99.90
6307;DHT22;3186;54.062;9.962;2023-03-05T07:03:41;2.90;99.90
6307;DHT22;3186;54.062;9.962;2023-03-05T07:06:09;2.90;99.90
6307;DHT22;3186;54.062;9.962;2023-03-05T07:08:36;2.80;99.90
6307;DHT22;3186;54.062;9.962;2023-03-05T07:11:04;2.80;99.90
6307;DHT22;3186;54.062;9.962;2023-03-05T07:13:33;2.80;99.90
6307;DHT22;3186;54.062;9.962;2023-03-05T07:16:07;3.00;99.90
6307;DHT22;3186;54.062;9.962;2023-03-05T07:18:33;3.00;99.90
6307;DHT22;3186;54.062;9.962;2023-03-05T07:21:04;2.90;99.90
6307;DHT22;3186;54.062;9.962;2023-03-05T07:23:30;2.90;99.90
6307;DHT22;3186;54.062;9.962;2023-03-05T07:25:56;2.80;99.90
6307;DHT22;3186;54.062;9.962;2023-03-05T07:28:22;2.80;99.90
6307;DHT22;3186;54.062;9.962;2023-03-05T07:31:03;3.00;99.90
6307;DHT22;3186;54.062;9.962;2023-03-05T07:33:29;3.00;99.90
6307;DHT22;3186;54.062;9.962;2023-03-05T07:35:55;2.90;99.90
6307;DHT22;3186;54.062;9.962;2023-03-05T07:38:21;3.00;99.90
6307;DHT22;3186;54.062;9.962;2023-03-05T07:40:47;3.00;99.90
6307;DHT22;3186;54.062;9.962;2023-03-05T07:43:13;3.00;99.90
6307;DHT22;3186;54.062;9.962;2023-03-05T07:45:40;2.90;99.90
6307;DHT22;3186;54.062;9.962;2023-03-05T07:48:07;2.90;99.90
6307;DHT22;3186;54.062;9.962;2023-03-05T07:50:33;3.00;99.90
6307;DHT22;3186;54.062;9.962;2023-03-05T07:52:59;3.00;99.90
6307;DHT22;3186;54.062;9.962;2023-03-05T07:55:24;3.10;99.90
6307;DHT22;3186;54.062;9.962;2023-03-05T07:57:50;3.10;99.90
6307;DHT22;3186;54.062;9.962;2023-03-05T08:00:17;3.00;99.90
6307;DHT22;3186;54.062;9.962;2023-03-05T08:02:43;3.10;99.90
6307;DHT22;3186;54.062;9.962;2023-03-05T08:05:10;3.10;99.90
6307;DHT22;3186;54.062;9.962;2023-03-05T08:07:36;3.20;99.90
6307;DHT22;3186;54.062;9.962;2023-03-05T08:10:03;3.20;99.90
6307;DHT22;3186;54.062;9.962;2023-03-05T08:12:29;3.30;99.90
6307;DHT22;3186;54.062;9.962;2023-03-05T08:14:55;3.30;99.90
6307;DHT22;3186;54.062;9.962;2023-03-05T08:17:20;3.40;99.90
6307;DHT22;3186;54.062;9.962;2023-03-05T08:19:46;3.40;99.90
6307;DHT22;3186;54.062;9.962;2023-03-05T08:22:12;3.40;99.90
6307;DHT22;3186;54.062;9.962;2023-03-05T08:24:41;3.50;99.90
6307;DHT22;3186;54.062;9.962;2023-03-05T08:27:07;3.50;99.90
6307;DHT22;3186;54.062;9.962;2023-03-05T08:29:33;3.50;99.90
6307;DHT22;3186;54.062;9.962;2023-03-05T08:31:59;3.50;99.90
6307;DHT22;3186;54.062;9.962;2023-03-05T08:34:25;3.60;99.90
6307;DHT22;3186;54.062;9.962;2023-03-05T08:36:50;3.60;99.90
6307;DHT22;3186;54.062;9.962;2023-03-05T08:39:17;3.70;99.90
6307;DHT22;3186;54.062;9.962;2023-03-05T08:41:43;3.70;99.90
6307;DHT22;3186;54.062;9.962;2023-03-05T08:44:09;3.70;99.90
6307;DHT22;3186;54.062;9.962;2023-03-05T08:46:37;3.70;99.90
6307;DHT22;3186;54.062;9.962;2023-03-05T08:49:03;3.70;99.90
6307;DHT22;3186;54.062;9.962;2023-03-05T08:51:29;3.70;99.90
6307;DHT22;3186;54.062;9.962;2023-03-05T08:53:56;3.70;99.90
6307;DHT22;3186;54.062;9.962;2023-03-05T08:56:23;3.70;99.90
6307;DHT22;3186;54.062;9.962;2023-03-05T08:58:50;3.70;99.90
6307;DHT22;3186;54.062;9.962;2023-03-05T09:01:17;3.80;99.90
6307;DHT22;3186;54.062;9.962;2023-03-05T09:03:43;3.90;99.90
6307;DHT22;3186;54.062;9.962;2023-03-05T09:06:10;4.00;99.90
6307;DHT22;3186;54.062;9.962;2023-03-05T09:08:37;4.00;99.90
6307;DHT22;3186;54.062;9.962;2023-03-05T09:11:06;4.00;99.90
6307;DHT22;3186;54.062;9.962;2023-03-05T09:13:32;4.10;99.90
6307;DHT22;3186;54.062;9.962;2023-03-05T09:16:00;4.20;99.90
6307;DHT22;3186;54.062;9.962;2023-03-05T09:18:26;4.20;99.90
6307;DHT22;3186;54.062;9.962;2023-03-05T09:20:52;4.20;99.90
6307;DHT22;3186;54.062;9.962;2023-03-05T09:23:19;4.20;99.90
6307;DHT22;3186;54.062;9.962;2023-03-05T09:25:45;4.30;99.80
6307;DHT22;3186;54.062;9.962;2023-03-05T09:28:10;4.20;99.90
6307;DHT22;3186;54.062;9.962;2023-03-05T09:30:37;4.20;99.90
6307;DHT22;3186;54.062;9.962;2023-03-05T09:33:03;4.40;98.20
6307;DHT22;3186;54.062;9.962;2023-03-05T09:35:30;4.50;99.90
6307;DHT22;3186;54.062;9.962;2023-03-05T09:37:58;4.60;96.70
6307;DHT22;3186;54.062;9.962;2023-03-05T09:40:24;4.60;99.90
6307;DHT22;3186;54.062;9.962;2023-03-05T09:48:48;4.50;99.90
6307;DHT22;3186;54.062;9.962;2023-03-05T09:51:36;4.60;93.20
6307;DHT22;3186;54.062;9.962;2023-03-05T09:54:14;4.50;99.80
6307;DHT22;3186;54.062;9.962;2023-03-05T09:56:45;4.70;93.70
6307;DHT22;3186;54.062;9.962;2023-03-05T10:02:04;4.60;92.50
6307;DHT22;3186;54.062;9.962;2023-03-05T10:04:59;4.60;82.80
6307;DHT22;3186;54.062;9.962;2023-03-05T10:07:30;4.80;95.10
6307;DHT22;3186;54.062;9.962;2023-03-05T10:10:03;4.90;90.00
6307;DHT22;3186;54.062;9.962;2023-03-05T10:13:01;4.80;80.00
6307;DHT22;3186;54.062;9.962;2023-03-05T10:15:44;5.00;94.50
6307;DHT22;3186;54.062;9.962;2023-03-05T10:23:50;5.00;96.10
6307;DHT22;3186;54.062;9.962;2023-03-05T10:26:40;4.90;93.80
6307;DHT22;3186;54.062;9.962;2023-03-05T10:29:38;4.90;98.10
6307;DHT22;3186;54.062;9.962;2023-03-05T10:40:15;5.20;97.30
6307;DHT22;3186;54.062;9.962;2023-03-05T10:45:44;5.40;80.50
6307;DHT22;3186;54.062;9.962;2023-03-05T10:50:52;5.60;68.20
6307;DHT22;3186;54.062;9.962;2023-03-05T10:53:39;5.60;54.50
6307;DHT22;3186;54.062;9.962;2023-03-05T10:56:11;5.50;84.80
6307;DHT22;3186;54.062;9.962;2023-03-05T10:58:37;5.30;60.70
6307;DHT22;3186;54.062;9.962;2023-03-05T11:06:13;5.40;82.00
6307;DHT22;3186;54.062;9.962;2023-03-05T11:08:39;5.60;69.90
6307;DHT22;3186;54.062;9.962;2023-03-05T11:13:59;6.20;59.40
6307;DHT22;3186;54.062;9.962;2023-03-05T11:16:31;6.20;54.50
6307;DHT22;3186;54.062;9.962;2023-03-05T11:19:26;6.50;50.90
6307;DHT22;3186;54.062;9.962;2023-03-05T11:22:17;6.90;36.10
6307;DHT22;3186;54.062;9.962;2023-03-05T11:25:15;6.80;53.20
6307;DHT22;3186;54.062;9.962;2023-03-05T11:27:53;6.80;27.80
6307;DHT22;3186;54.062;9.962;2023-03-05T11:33:09;6.50;60.90
6307;DHT22;3186;54.062;9.962;2023-03-05T11:35:38;6.30;79.50
6307;DHT22;3186;54.062;9.962;2023-03-05T11:38:06;6.00;79.10
6307;DHT22;3186;54.062;9.962;2023-03-05T11:40:39;5.50;93.10
6307;DHT22;3186;54.062;9.962;2023-03-05T11:43:05;5.40;99.90
6307;DHT22;3186;54.062;9.962;2023-03-05T11:45:32;5.10;99.90
6307;DHT22;3186;54.062;9.962;2023-03-05T11:48:12;5.30;99.90
6307;DHT22;3186;54.062;9.962;2023-03-05T11:50:43;5.20;99.90
6307;DHT22;3186;54.062;9.962;2023-03-05T11:53:19;5.50;99.90
6307;DHT22;3186;54.062;9.962;2023-03-05T11:58:38;6.00;99.90
6307;DHT22;3186;54.062;9.962;2023-03-05T12:01:17;6.00;99.90
6307;DHT22;3186;54.062;9.962;2023-03-05T12:03:44;6.20;99.90
6307;DHT22;3186;54.062;9.962;2023-03-05T12:08:46;6.50;99.90
6307;DHT22;3186;54.062;9.962;2023-03-05T12:11:23;6.50;95.30
6307;DHT22;3186;54.062;9.962;2023-03-05T12:13:55;6.70;99.90
6307;DHT22;3186;54.062;9.962;2023-03-05T12:16:33;6.10;95.60
6307;DHT22;3186;54.062;9.962;2023-03-05T12:19:11;6.40;98.80
6307;DHT22;3186;54.062;9.962;2023-03-05T12:21:42;6.20;94.70
6307;DHT22;3186;54.062;9.962;2023-03-05T12:24:38;5.80;99.90
6307;DHT22;3186;54.062;9.962;2023-03-05T12:27:07;6.10;99.90
6307;DHT22;3186;54.062;9.962;2023-03-05T12:35:04;7.00;92.80
6307;DHT22;3186;54.062;9.962;2023-03-05T12:42:52;6.60;79.60
6307;DHT22;3186;54.062;9.962;2023-03-05T12:45:26;6.70;92.60
6307;DHT22;3186;54.062;9.962;2023-03-05T12:55:57;6.80;94.30
6307;DHT22;3186;54.062;9.962;2023-03-05T13:01:53;6.80;82.40
6307;DHT22;3186;54.062;9.962;2023-03-05T13:03:59;7.50;52.40
6307;DHT22;3186;54.062;9.962;2023-03-05T13:06:35;7.30;71.90
6307;DHT22;3186;54.062;9.962;2023-03-05T13:11:36;7.20;59.60
6307;DHT22;3186;54.062;9.962;2023-03-05T13:14:03;6.80;90.90
6307;DHT22;3186;54.062;9.962;2023-03-05T13:16:38;6.50;94.30
6307;DHT22;3186;54.062;9.962;2023-03-05T13:19:14;6.80;96.70
6307;DHT22;3186;54.062;9.962;2023-03-05T13:21:40;6.90;92.00
6307;DHT22;3186;54.062;9.962;2023-03-05T13:24:16;7.10;97.50
6307;DHT22;3186;54.062;9.962;2023-03-05T13:26:42;7.10;95.10
6307;DHT22;3186;54.062;9.962;2023-03-05T13:31:48;7.10;96.10
6307;DHT22;3186;54.062;9.962;2023-03-05T13:34:35;6.90;99.00
6307;DHT22;3186;54.062;9.962;2023-03-05T13:37:15;6.80;99.90
6307;DHT22;3186;54.062;9.962;2023-03-05T13:39:43;7.10;96.70
6307;DHT22;3186;54.062;9.962;2023-03-05T13:42:21;6.60;94.70
6307;DHT22;3186;54.062;9.962;2023-03-05T13:45:21;6.80;93.00
6307;DHT22;3186;54.062;9.962;2023-03-05T13:47:59;8.80;99.20
6307;DHT22;3186;54.062;9.962;2023-03-05T13:50:31;6.80;99.90
6307;DHT22;3186;54.062;9.962;2023-03-05T13:53:14;6.40;98.90
6307;DHT22;3186;54.062;9.962;2023-03-05T13:55:40;7.10;99.90
6307;DHT22;3186;54.062;9.962;2023-03-05T14:01:33;6.60;94.40
6307;DHT22;3186;54.062;9.962;2023-03-05T14:06:51;6.90;98.40
6307;DHT22;3186;54.062;9.962;2023-03-05T14:09:21;6.60;90.70
6307;DHT22;3186;54.062;9.962;2023-03-05T14:12:03;6.70;96.70
6307;DHT22;3186;54.062;9.962;2023-03-05T14:14:36;6.90;97.00
6307;DHT22;3186;54.062;9.962;2023-03-05T14:17:31;6.40;93.30
6307;DHT22;3186;54.062;9.962;2023-03-05T14:20:25;6.70;99.90
6307;DHT22;3186;54.062;9.962;2023-03-05T14:22:55;6.60;98.40
6307;DHT22;3186;54.062;9.962;2023-03-05T14:25:32;6.60;99.20
6307;DHT22;3186;54.062;9.962;2023-03-05T14:28:00;6.70;96.70
6307;DHT22;3186;54.062;9.962;2023-03-05T14:30:27;6.70;98.10
6307;DHT22;3186;54.062;9.962;2023-03-05T14:32:56;6.60;96.60
6307;DHT22;3186;54.062;9.962;2023-03-05T14:35:26;6.70;96.00
6307;DHT22;3186;54.062;9.962;2023-03-05T14:37:53;6.30;96.10
6307;DHT22;3186;54.062;9.962;2023-03-05T14:40:21;6.60;98.90
6307;DHT22;3186;54.062;9.962;2023-03-05T14:45:33;6.60;96.20
6307;DHT22;3186;54.062;9.962;2023-03-05T14:48:02;6.60;97.70
6307;DHT22;3186;54.062;9.962;2023-03-05T14:53:20;6.60;99.30
6307;DHT22;3186;54.062;9.962;2023-03-05T14:55:51;6.80;98.50
6307;DHT22;3186;54.062;9.962;2023-03-05T14:58:27;6.80;97.10
6307;DHT22;3186;54.062;9.962;2023-03-05T15:00:54;7.00;96.60
6307;DHT22;3186;54.062;9.962;2023-03-05T15:03:21;6.60;94.20
6307;DHT22;3186;54.062;9.962;2023-03-05T15:05:50;6.60;94.30
6307;DHT22;3186;54.062;9.962;2023-03-05T15:08:21;6.60;97.30
6307;DHT22;3186;54.062;9.962;2023-03-05T15:10:50;6.70;97.60
6307;DHT22;3186;54.062;9.962;2023-03-05T15:13:16;6.70;99.90
6307;DHT22;3186;54.062;9.962;2023-03-05T15:15:43;6.80;96.90
6307;DHT22;3186;54.062;9.962;2023-03-05T15:18:12;6.70;95.70
6307;DHT22;3186;54.062;9.962;2023-03-05T15:20:38;6.40;95.90
6307;DHT22;3186;54.062;9.962;2023-03-05T15:23:05;6.40;96.90
6307;DHT22;3186;54.062;9.962;2023-03-05T15:25:31;6.50;94.70
6307;DHT22;3186;54.062;9.962;2023-03-05T15:27:57;6.60;99.60
6307;DHT22;3186;54.062;9.962;2023-03-05T15:30:27;6.60;95.10
6307;DHT22;3186;54.062;9.962;2023-03-05T15:32:54;6.70;97.40
6307;DHT22;3186;54.062;9.962;2023-03-05T15:35:22;6.60;94.40
6307;DHT22;3186;54.062;9.962;2023-03-05T15:37:48;6.60;98.50
6307;DHT22;3186;54.062;9.962;2023-03-05T15:40:14;6.70;99.10
6307;DHT22;3186;54.062;9.962;2023-03-05T15:42:41;6.50;98.80
6307;DHT22;3186;54.062;9.962;2023-03-05T15:45:06;6.70;99.90
6307;DHT22;3186;54.062;9.962;2023-03-05T15:47:32;6.50;97.50
6307;DHT22;3186;54.062;9.962;2023-03-05T15:49:58;6.60;99.30
6307;DHT22;3186;54.062;9.962;2023-03-05T15:52:24;6.60;95.60
6307;DHT22;3186;54.062;9.962;2023-03-05T15:54:50;6.60;95.70
6307;DHT22;3186;54.062;9.962;2023-03-05T15:57:18;6.60;95.60
6307;DHT22;3186;54.062;9.962;2023-03-05T15:59:46;6.30;95.20
6307;DHT22;3186;54.062;9.962;2023-03-05T16:02:12;6.30;98.20
6307;DHT22;3186;54.062;9.962;2023-03-05T16:04:37;6.40;79.90
6307;DHT22;3186;54.062;9.962;2023-03-05T16:07:03;6.30;96.50
6307;DHT22;3186;54.062;9.962;2023-03-05T16:09:34;9.10;96.30
6307;DHT22;3186;54.062;9.962;2023-03-05T16:12:03;6.10;95.50
6307;DHT22;3186;54.062;9.962;2023-03-05T16:14:31;6.70;99.90
6307;DHT22;3186;54.062;9.962;2023-03-05T16:17:00;6.30;94.50
6307;DHT22;3186;54.062;9.962;2023-03-05T16:19:28;6.20;97.10
6307;DHT22;3186;54.062;9.962;2023-03-05T16:21:55;6.20;98.00
6307;DHT22;3186;54.062;9.962;2023-03-05T16:24:21;6.20;92.70
6307;DHT22;3186;54.062;9.962;2023-03-05T16:26:47;6.10;96.20
6307;DHT22;3186;54.062;9.962;2023-03-05T16:29:12;6.10;79.10
6307;DHT22;3186;54.062;9.962;2023-03-05T16:31:39;5.90;93.70
6307;DHT22;3186;54.062;9.962;2023-03-05T16:34:08;5.70;92.90
6307;DHT22;3186;54.062;9.962;2023-03-05T16:36:34;5.80;91.70
6307;DHT22;3186;54.062;9.962;2023-03-05T16:39:02;5.90;99.00
6307;DHT22;3186;54.062;9.962;2023-03-05T16:41:28;5.70;71.70
6307;DHT22;3186;54.062;9.962;2023-03-05T16:43:55;5.70;98.90
6307;DHT22;3186;54.062;9.962;2023-03-05T16:46:26;5.60;87.90
6307;DHT22;3186;54.062;9.962;2023-03-05T16:48:53;5.60;95.70
6307;DHT22;3186;54.062;9.962;2023-03-05T16:51:19;5.60;95.70
6307;DHT22;3186;54.062;9.962;2023-03-05T16:53:45;5.70;85.00
6307;DHT22;3186;54.062;9.962;2023-03-05T16:56:11;5.60;95.40
6307;DHT22;3186;54.062;9.962;2023-03-05T16:58:39;5.70;98.90
6307;DHT22;3186;54.062;9.962;2023-03-05T17:01:13;5.70;94.80
6307;DHT22;3186;54.062;9.962;2023-03-05T17:03:39;5.70;98.50
6307;DHT22;3186;54.062;9.962;2023-03-05T17:06:20;5.80;98.40
6307;DHT22;3186;54.062;9.962;2023-03-05T17:08:47;5.70;95.40
6307;DHT22;3186;54.062;9.962;2023-03-05T17:11:13;5.00;96.90
6307;DHT22;3186;54.062;9.962;2023-03-05T17:13:40;5.60;97.90
6307;DHT22;3186;54.062;9.962;2023-03-05T17:16:07;5.60;92.70
6307;DHT22;3186;54.062;9.962;2023-03-05T17:18:33;5.60;97.00
6307;DHT22;3186;54.062;9.962;2023-03-05T17:21:00;5.60;98.70
6307;DHT22;3186;54.062;9.962;2023-03-05T17:23:27;5.50;91.50
6307;DHT22;3186;54.062;9.962;2023-03-05T17:25:53;5.60;98.60
6307;DHT22;3186;54.062;9.962;2023-03-05T17:28:19;5.60;99.90
6307;DHT22;3186;54.062;9.962;2023-03-05T17:30:44;5.60;99.30
6307;DHT22;3186;54.062;9.962;2023-03-05T17:33:11;5.60;98.70
6307;DHT22;3186;54.062;9.962;2023-03-05T17:35:37;5.60;99.90
6307;DHT22;3186;54.062;9.962;2023-03-05T17:38:05;5.60;99.90
6307;DHT22;3186;54.062;9.962;2023-03-05T17:40:32;5.60;99.90
6307;DHT22;3186;54.062;9.962;2023-03-05T17:42:59;5.50;99.90
6307;DHT22;3186;54.062;9.962;2023-03-05T17:45:25;5.50;99.90
6307;DHT22;3186;54.062;9.962;2023-03-05T17:47:51;5.50;99.90
6307;DHT22;3186;54.062;9.962;2023-03-05T17:50:18;5.50;99.90
6307;DHT22;3186;54.062;9.962;2023-03-05T17:52:44;5.50;99.90
6307;DHT22;3186;54.062;9.962;2023-03-05T17:55:12;5.50;99.90